Time;durP1;ratioP1;P1;durP2;ratioP2;P2;SDS_P1;SDS_P2;PMS_P1;PMS_P2;Temp;Humidity;BMP_temperature;BMP_pressure;BME280_temperature;BME280_humidity;BME280_pressure;Samples;Min_cycle;Max_cycle;Signal;HPM_P1;HPM_P2
2022/07/23 00:01:15;;;;;;;10.35;5.30;;;12.40;83.70;;;;;;5025351;28;20021;-81
2022/07/23 00:03:41;;;;;;;13.77;5.35;;;12.50;73.30;;;;;;5034062;28;20117;-81
2022/07/23 00:06:07;;;;;;;7.68;4.50;;;12.50;72.20;;;;;;5033968;28;20429;-81
2022/07/23 00:08:32;;;;;;;11.00;4.85;;;12.70;68.80;;;;;;5033938;28;20035;-81
2022/07/23 00:10:58;;;;;;;8.02;4.72;;;12.70;53.20;;;;;;5033720;28;20029;-81
2022/07/23 00:13:23;;;;;;;7.25;4.60;;;12.60;40.80;;;;;;5033365;28;20030;-81
2022/07/23 00:15:49;;;;;;;8.40;4.55;;;12.60;41.20;;;;;;5021532;28;20026;-81
2022/07/23 00:18:16;;;;;;;9.60;4.38;;;12.40;36.90;;;;;;5013718;28;20033;-81
2022/07/23 00:20:41;;;;;;;8.27;4.20;;;12.30;45.90;;;;;;5013792;28;20030;-81
2022/07/23 00:23:07;;;;;;;11.50;4.20;;;12.20;52.20;;;;;;5026309;28;20078;-80
2022/07/23 00:25:37;;;;;;;6.18;4.05;;;12.00;58.80;;;;;;5033338;28;20030;-80
2022/07/23 00:28:03;;;;;;;8.50;4.15;;;12.00;69.80;;;;;;5038648;28;20029;-81
2022/07/23 00:30:30;;;;;;;7.35;3.90;;;11.90;68.50;;;;;;5042403;28;20037;-80
2022/07/23 00:33:01;;;;;;;10.05;4.05;;;11.80;70.40;;;;;;5015819;28;20050;-81
2022/07/23 00:35:28;;;;;;;7.20;4.20;;;11.70;71.00;;;;;;5014066;28;20041;-81
2022/07/23 00:37:55;;;;;;;7.95;4.43;;;11.70;72.10;;;;;;5032759;28;20034;-82
2022/07/23 00:40:21;;;;;;;6.38;4.25;;;11.80;75.30;;;;;;5039677;28;20068;-82
2022/07/23 00:42:46;;;;;;;5.78;4.13;;;11.90;75.00;;;;;;5053496;28;20061;-81
2022/07/23 00:45:12;;;;;;;6.20;3.90;;;12.10;75.80;;;;;;5044215;28;20038;-82
2022/07/23 00:47:38;;;;;;;5.57;3.67;;;11.90;60.20;;;;;;5051613;28;20048;-81
2022/07/23 00:50:06;;;;;;;5.45;3.97;;;11.90;64.20;;;;;;5052965;28;20025;-80
2022/07/23 00:52:32;;;;;;;7.10;3.72;;;11.80;65.90;;;;;;5052750;28;20029;-81
2022/07/23 00:54:57;;;;;;;5.97;3.47;;;11.70;59.00;;;;;;5053272;28;20025;-81
2022/07/23 00:57:23;;;;;;;5.75;3.80;;;11.60;69.10;;;;;;5053006;28;20424;-81
2022/07/23 00:59:49;;;;;;;5.90;3.50;;;11.50;70.60;;;;;;5053184;28;20079;-82
2022/07/23 01:02:14;;;;;;;4.82;3.10;;;11.30;55.70;;;;;;5053719;28;20044;-81
2022/07/23 01:04:40;;;;;;;5.10;3.50;;;11.20;52.50;;;;;;5056685;28;20036;-81
2022/07/23 01:07:06;;;;;;;8.90;3.65;;;11.10;66.10;;;;;;5056830;28;20490;-82
2022/07/23 01:09:31;;;;;;;5.18;3.28;;;11.10;76.40;;;;;;5056813;28;20017;-81
2022/07/23 01:11:58;;;;;;;7.57;4.15;;;11.10;80.00;;;;;;5044925;28;20033;-81
2022/07/23 01:14:24;;;;;;;9.05;4.45;;;11.00;87.90;;;;;;5036723;28;20044;-81
2022/07/23 01:16:50;;;;;;;6.07;4.80;;;11.00;89.70;;;;;;5049692;28;20025;-81
2022/07/23 01:19:17;;;;;;;8.55;4.28;;;10.80;90.10;;;;;;5057074;28;20656;-81
2022/07/23 01:21:53;;;;;;;6.93;4.20;;;10.70;88.10;;;;;;5047617;28;20029;-81
2022/07/23 01:24:21;;;;;;;8.60;4.38;;;10.80;92.80;;;;;;5036206;28;20103;-80
2022/07/23 01:26:48;;;;;;;7.88;4.20;;;10.70;94.30;;;;;;5036530;28;20034;-81
2022/07/23 01:29:15;;;;;;;7.22;4.13;;;10.70;96.20;;;;;;5029535;28;20425;-82
2022/07/23 01:31:41;;;;;;;6.90;4.10;;;10.60;96.90;;;;;;5029699;28;20390;-82
2022/07/23 01:34:07;;;;;;;8.13;3.88;;;10.70;99.20;;;;;;5036483;28;20064;-81
2022/07/23 01:36:33;;;;;;;7.63;3.83;;;10.50;99.70;;;;;;5036585;28;20044;-81
2022/07/23 01:38:59;;;;;;;7.50;4.45;;;10.40;98.10;;;;;;5036389;28;20428;-81
2022/07/23 01:41:24;;;;;;;8.55;4.45;;;10.50;99.90;;;;;;5035903;28;20026;-80
2022/07/23 01:43:50;;;;;;;7.05;4.13;;;10.40;99.90;;;;;;5036017;28;20111;-81
2022/07/23 01:46:16;;;;;;;8.20;4.25;;;10.30;99.90;;;;;;5035903;28;20037;-81
2022/07/23 01:48:42;;;;;;;10.45;4.18;;;10.30;99.90;;;;;;5035958;28;20496;-81
2022/07/23 01:51:08;;;;;;;9.13;4.28;;;10.30;99.90;;;;;;5035816;28;20018;-81
2022/07/23 01:53:33;;;;;;;6.70;4.00;;;10.30;99.90;;;;;;5035877;28;20381;-81
2022/07/23 01:56:00;;;;;;;9.15;4.32;;;10.30;99.90;;;;;;5036095;28;20112;-81
2022/07/23 01:58:27;;;;;;;5.40;3.92;;;10.20;99.90;;;;;;5036064;28;20554;-80
2022/07/23 02:00:54;;;;;;;5.55;4.03;;;10.20;99.90;;;;;;5034626;28;20110;-80
2022/07/23 02:03:20;;;;;;;6.32;3.63;;;10.20;99.90;;;;;;5015940;28;20029;-81
2022/07/23 02:05:45;;;;;;;7.15;4.55;;;10.20;99.90;;;;;;5016614;28;20033;-81
2022/07/23 02:08:11;;;;;;;6.40;3.90;;;10.20;99.90;;;;;;5015861;28;20025;-81
2022/07/23 02:10:36;;;;;;;7.68;4.72;;;10.10;99.90;;;;;;5029586;28;20108;-81
2022/07/23 02:13:02;;;;;;;8.57;3.70;;;10.10;99.90;;;;;;5035395;28;20048;-81
2022/07/23 02:15:28;;;;;;;5.88;3.88;;;10.10;99.90;;;;;;5035438;28;20022;-81
2022/07/23 02:17:54;;;;;;;6.53;3.92;;;10.00;99.90;;;;;;5035675;28;20032;-81
2022/07/23 02:20:20;;;;;;;6.93;4.07;;;10.00;99.90;;;;;;5035684;28;20018;-81
2022/07/23 02:22:45;;;;;;;6.85;4.07;;;9.90;99.90;;;;;;5035370;28;20092;-81
2022/07/23 02:25:11;;;;;;;6.53;4.22;;;9.90;99.90;;;;;;5035374;28;20030;-81
2022/07/23 02:27:37;;;;;;;7.22;4.40;;;10.00;99.90;;;;;;5035356;28;20026;-80
2022/07/23 02:30:03;;;;;;;7.22;4.28;;;10.00;99.90;;;;;;5035389;28;20049;-81
2022/07/23 02:32:29;;;;;;;5.85;3.92;;;9.90;99.90;;;;;;5028929;28;20084;-81
2022/07/23 02:34:54;;;;;;;7.25;3.78;;;9.90;99.90;;;;;;5015593;28;20434;-82
2022/07/23 02:37:20;;;;;;;6.25;3.80;;;9.80;99.90;;;;;;5022114;28;20021;-81
2022/07/23 02:39:48;;;;;;;6.13;3.45;;;9.90;99.90;;;;;;5035319;28;20047;-81
2022/07/23 02:42:14;;;;;;;7.65;3.88;;;9.90;99.90;;;;;;5035191;28;20024;-81
2022/07/23 02:44:39;;;;;;;5.68;3.53;;;9.90;99.90;;;;;;5034873;28;20033;-81
2022/07/23 02:47:05;;;;;;;5.88;3.42;;;9.90;99.90;;;;;;5034851;28;20025;-81
2022/07/23 02:49:31;;;;;;;6.32;3.53;;;9.90;99.90;;;;;;5034837;28;20397;-80
2022/07/23 02:51:56;;;;;;;9.98;3.67;;;10.00;99.90;;;;;;5042377;28;20356;-81
2022/07/23 02:54:22;;;;;;;5.78;3.28;;;10.10;99.90;;;;;;5054687;28;20116;-80
2022/07/23 02:56:47;;;;;;;7.78;3.42;;;10.10;99.90;;;;;;5054740;28;20147;-80
2022/07/23 02:59:13;;;;;;;6.32;3.55;;;10.20;99.90;;;;;;5054519;28;20491;-81
2022/07/23 03:01:38;;;;;;;7.22;4.13;;;10.30;99.90;;;;;;5054542;28;20379;-81
2022/07/23 03:04:04;;;;;;;8.98;4.65;;;10.60;99.90;;;;;;5054010;28;20033;-81
2022/07/23 03:06:30;;;;;;;9.13;4.93;;;10.90;99.90;;;;;;5035850;28;20029;-81
2022/07/23 03:08:55;;;;;;;13.65;5.60;;;11.00;99.90;;;;;;5034214;28;20648;-80
2022/07/23 03:11:21;;;;;;;9.07;5.10;;;10.90;99.90;;;;;;5034145;28;20056;-80
2022/07/23 03:13:47;;;;;;;9.95;5.55;;;11.00;99.90;;;;;;5022388;28;20029;-80
2022/07/23 03:16:12;;;;;;;11.95;5.63;;;11.10;99.90;;;;;;5032072;28;20033;-80
2022/07/23 03:18:38;;;;;;;12.35;5.68;;;11.30;99.90;;;;;;5033835;28;20026;-80
2022/07/23 03:21:03;;;;;;;9.02;5.10;;;11.30;99.90;;;;;;5034062;28;20067;-80
2022/07/23 03:23:29;;;;;;;9.43;5.25;;;11.20;99.90;;;;;;5020721;28;20654;-80
2022/07/23 03:25:55;;;;;;;8.25;4.53;;;11.20;99.90;;;;;;5013725;28;20053;-80
2022/07/23 03:28:20;;;;;;;8.18;5.07;;;11.20;99.90;;;;;;5023691;28;20030;-80
2022/07/23 03:30:46;;;;;;;8.45;4.80;;;11.10;99.90;;;;;;5033834;28;20076;-80
2022/07/23 03:33:13;;;;;;;11.18;5.30;;;11.10;99.90;;;;;;5027784;28;20056;-80
2022/07/23 03:35:39;;;;;;;9.02;4.88;;;11.00;99.90;;;;;;5032521;28;20017;-81
2022/07/23 03:38:04;;;;;;;8.43;5.22;;;11.00;99.90;;;;;;5033700;28;20031;-81
2022/07/23 03:40:30;;;;;;;8.68;4.57;;;11.00;99.90;;;;;;5033622;28;20096;-80
2022/07/23 03:42:55;;;;;;;9.27;5.05;;;10.90;99.90;;;;;;5020192;28;20581;-80
2022/07/23 03:45:21;;;;;;;7.82;4.78;;;10.90;99.90;;;;;;5031505;28;20079;-80
2022/07/23 03:47:46;;;;;;;8.68;4.72;;;10.90;99.90;;;;;;5025810;28;20033;-80
2022/07/23 03:50:12;;;;;;;8.77;5.03;;;10.80;99.90;;;;;;5033377;28;20075;-80
2022/07/23 03:52:38;;;;;;;10.75;5.22;;;10.80;99.90;;;;;;5033604;28;20018;-80
2022/07/23 03:55:04;;;;;;;10.02;4.75;;;10.80;99.90;;;;;;5033618;28;20068;-80
2022/07/23 03:57:29;;;;;;;8.82;4.90;;;10.80;99.90;;;;;;5025917;28;20030;-80
2022/07/23 03:59:55;;;;;;;7.82;4.75;;;10.70;99.90;;;;;;5031971;28;20021;-80
2022/07/23 04:02:21;;;;;;;10.40;4.68;;;10.80;99.90;;;;;;5033516;28;20033;-80
2022/07/23 04:04:47;;;;;;;7.43;4.75;;;10.80;99.90;;;;;;5032441;28;20044;-80
2022/07/23 04:07:13;;;;;;;7.95;4.55;;;10.80;99.90;;;;;;5015796;28;20445;-80
2022/07/23 04:09:40;;;;;;;8.27;4.93;;;10.90;99.90;;;;;;5013954;28;20029;-80
2022/07/23 04:12:06;;;;;;;9.02;4.90;;;10.90;99.90;;;;;;5014123;28;20369;-81
2022/07/23 04:14:32;;;;;;;6.93;4.70;;;10.90;99.90;;;;;;5027837;28;20026;-79
2022/07/23 04:16:58;;;;;;;12.57;5.03;;;11.30;99.90;;;;;;5033970;28;20025;-80
2022/07/23 04:19:23;;;;;;;10.93;4.93;;;12.60;99.90;;;;;;5034044;28;20025;-80
2022/07/23 04:21:49;;;;;;;8.18;4.78;;;13.50;99.90;;;;;;5034151;28;20052;-80
2022/07/23 04:24:14;;;;;;;8.57;5.07;;;14.40;54.20;;;;;;5027432;28;20354;-81
2022/07/23 04:26:40;;;;;;;7.35;4.50;;;13.90;1.00;;;;;;5014201;28;20080;-81
2022/07/23 04:29:05;;;;;;;6.13;4.20;;;13.30;2.60;;;;;;5033714;28;20029;-82
2022/07/23 04:31:31;;;;;;;6.78;4.15;;;13.00;10.20;;;;;;5033797;28;20033;-81
2022/07/23 04:33:56;;;;;;;6.50;3.78;;;12.80;25.50;;;;;;5031312;28;20068;-81
2022/07/23 04:36:22;;;;;;;7.22;3.78;;;12.70;32.30;;;;;;5032565;28;20469;-82
2022/07/23 04:38:48;;;;;;;6.15;3.90;;;12.60;21.70;;;;;;5037161;28;20428;-81
2022/07/23 04:41:13;;;;;;;6.30;3.80;;;12.60;8.10;;;;;;5025362;28;20026;-81
2022/07/23 04:43:39;;;;;;;6.63;3.95;;;13.10;15.90;;;;;;5022977;28;20095;-82
2022/07/23 04:46:05;;;;;;;6.95;4.00;;;15.50;1.00;;;;;;5024646;28;20028;-81
2022/07/23 04:48:31;;;;;;;7.75;4.05;;;17.60;1.00;;;;;;5031348;28;20029;-82
2022/07/23 04:50:56;;;;;;;5.80;4.00;;;19.30;99.90;;;;;;5031213;28;20029;-80
2022/07/23 04:53:22;;;;;;;5.05;3.47;;;20.80;99.90;;;;;;5030065;28;20358;-81
2022/07/23 04:55:48;;;;;;;5.97;3.42;;;22.10;99.90;;;;;;5030870;28;20044;-81
2022/07/23 04:58:13;;;;;;;5.65;3.10;;;21.10;99.90;;;;;;5037096;28;20040;-82
2022/07/23 05:00:39;;;;;;;6.03;3.67;;;18.90;99.90;;;;;;5037394;28;20028;-82
2022/07/23 05:03:05;;;;;;;4.63;3.22;;;17.80;99.90;;;;;;5033328;28;20582;-82
2022/07/23 05:05:31;;;;;;;6.50;3.20;;;18.40;99.90;;;;;;5042965;28;20468;-82
2022/07/23 05:07:56;;;;;;;5.53;2.38;;;21.70;99.90;;;;;;5045400;28;20033;-82
2022/07/23 05:10:22;;;;;;;3.88;2.42;;;24.40;99.90;;;;;;5036257;28;20025;-81
2022/07/23 05:12:48;;;;;;;3.63;2.45;;;26.00;99.90;;;;;;5026100;28;20029;-81
2022/07/23 05:15:13;;;;;;;2.35;2.10;;;27.10;99.90;;;;;;5048898;28;20021;-81
2022/07/23 05:17:39;;;;;;;4.45;2.60;;;27.20;99.90;;;;;;5036283;28;20025;-82
2022/07/23 05:20:05;;;;;;;3.35;2.53;;;25.80;99.90;;;;;;5036370;28;20021;-81
2022/07/23 05:22:30;;;;;;;2.33;2.13;;;26.70;99.90;;;;;;5036196;28;20049;-81
2022/07/23 05:24:56;;;;;;;2.25;1.92;;;28.80;99.90;;;;;;5036359;28;20092;-81
2022/07/23 05:27:21;;;;;;;2.55;1.83;;;28.70;99.90;;;;;;5035233;28;20032;-81
2022/07/23 05:29:47;;;;;;;3.65;1.80;;;29.80;99.90;;;;;;5021893;28;20033;-81
2022/07/23 05:32:12;;;;;;;2.03;1.83;;;30.60;99.90;;;;;;5019566;28;20050;-82
2022/07/23 05:34:38;;;;;;;2.20;1.85;;;30.80;99.90;;;;;;5016078;28;20026;-81
2022/07/23 05:37:03;;;;;;;2.92;1.52;;;31.50;99.90;;;;;;5021656;28;20549;-83
2022/07/23 05:39:29;;;;;;;1.80;1.70;;;32.30;99.90;;;;;;5038945;28;20124;-82
2022/07/23 05:41:55;;;;;;;2.17;1.65;;;32.90;99.90;;;;;;5032783;28;20037;-79
2022/07/23 05:44:20;;;;;;;1.75;1.42;;;34.20;99.90;;;;;;5028349;28;20464;-81
2022/07/23 05:46:46;;;;;;;2.35;1.30;;;34.80;99.90;;;;;;5030820;28;20033;-80
2022/07/23 05:49:11;;;;;;;1.73;1.08;;;35.40;99.90;;;;;;5021231;28;20061;-80
2022/07/23 05:51:37;;;;;;;2.28;1.10;;;35.70;99.90;;;;;;5030918;28;20038;-82
2022/07/23 05:54:03;;;;;;;1.35;0.80;;;34.50;99.90;;;;;;5025252;28;20112;-81
2022/07/23 05:56:28;;;;;;;0.80;0.80;;;33.50;99.90;;;;;;5035540;28;20087;-82
2022/07/23 05:58:54;;;;;;;0.93;0.60;;;35.30;99.90;;;;;;5024388;28;20013;-82
2022/07/23 06:01:19;;;;;;;2.45;0.75;;;36.00;99.90;;;;;;5032170;28;20026;-82
2022/07/23 06:03:45;;;;;;;0.80;0.40;;;35.70;99.90;;;;;;5033140;28;20022;-82
2022/07/23 06:06:10;;;;;;;1.52;0.40;;;36.20;99.90;;;;;;5023961;28;20033;-82
2022/07/23 06:08:36;;;;;;;1.80;0.30;;;36.20;99.90;;;;;;5017120;28;20032;-81
2022/07/23 06:11:02;;;;;;;0.52;0.30;;;36.80;99.90;;;;;;5032340;28;20030;-82
2022/07/23 06:13:27;;;;;;;0.85;0.40;;;37.60;99.90;;;;;;5027667;28;20025;-82
2022/07/23 06:15:53;;;;;;;1.17;0.40;;;37.00;99.90;;;;;;5019136;28;20033;-82
2022/07/23 06:18:18;;;;;;;0.70;0.30;;;37.20;99.90;;;;;;5027401;28;20018;-82
2022/07/23 06:20:44;;;;;;;1.20;0.70;;;37.30;99.90;;;;;;5037565;28;20108;-82
2022/07/23 06:23:10;;;;;;;0.80;0.35;;;38.20;99.90;;;;;;5035466;28;20060;-82
2022/07/23 06:25:35;;;;;;;0.45;0.40;;;38.40;99.90;;;;;;5036920;28;20041;-82
2022/07/23 06:28:01;;;;;;;1.25;0.30;;;39.50;99.90;;;;;;5037355;28;20026;-82
2022/07/23 06:30:26;;;;;;;1.10;0.47;;;35.50;99.90;;;;;;5036143;28;20075;-83
2022/07/23 06:32:52;;;;;;;0.50;0.30;;;33.10;99.90;;;;;;5034955;28;20049;-82
2022/07/23 06:35:17;;;;;;;1.42;0.30;;;30.80;99.90;;;;;;5035656;28;20041;-83
2022/07/23 06:37:43;;;;;;;1.27;0.30;;;29.20;99.90;;;;;;5035249;28;20053;-81
2022/07/23 06:40:09;;;;;;;0.57;0.50;;;28.00;99.90;;;;;;5034967;28;20025;-80
2022/07/23 06:42:36;;;;;;;0.77;0.30;;;27.20;99.90;;;;;;5034897;28;20029;-80
2022/07/23 06:45:03;;;;;;;3.20;0.57;;;26.90;99.90;;;;;;5035019;28;20374;-82
2022/07/23 06:47:29;;;;;;;0.80;0.40;;;26.60;99.90;;;;;;5034797;28;20060;-81
2022/07/23 06:49:54;;;;;;;0.80;0.30;;;26.60;99.90;;;;;;5021759;28;20438;-81
2022/07/23 06:52:20;;;;;;;2.03;0.60;;;27.60;99.90;;;;;;5022912;28;20088;-80
2022/07/23 06:54:46;;;;;;;0.50;0.30;;;29.80;99.90;;;;;;5029748;28;20080;-81
2022/07/23 06:57:11;;;;;;;1.40;0.47;;;30.30;99.90;;;;;;5014718;28;20101;-81
2022/07/23 06:59:40;;;;;;;0.43;0.30;;;30.40;99.90;;;;;;5023817;28;20021;-81
2022/07/23 07:02:06;;;;;;;0.68;0.40;;;31.70;99.90;;;;;;5054615;28;20099;-81
2022/07/23 07:04:32;;;;;;;0.43;0.30;;;32.00;99.90;;;;;;5054164;28;20039;-80
2022/07/23 07:06:57;;;;;;;0.82;0.35;;;30.20;99.90;;;;;;5044074;28;20112;-81
2022/07/23 07:09:23;;;;;;;0.40;0.32;;;29.00;99.90;;;;;;5029174;28;20026;-81
2022/07/23 07:11:49;;;;;;;1.15;0.30;;;28.00;99.90;;;;;;5024930;28;20100;-81
2022/07/23 07:14:14;;;;;;;0.88;0.68;;;27.20;99.90;;;;;;5033915;28;20454;-80
2022/07/23 07:16:40;;;;;;;1.77;0.40;;;26.80;99.90;;;;;;5024838;28;20025;-81
2022/07/23 07:19:05;;;;;;;2.35;0.50;;;25.90;99.90;;;;;;5033953;28;20032;-81
2022/07/23 07:21:31;;;;;;;1.00;0.47;;;25.20;99.90;;;;;;5022832;28;20082;-80
2022/07/23 07:23:56;;;;;;;1.13;0.40;;;24.90;99.90;;;;;;5030886;28;20057;-80
2022/07/23 07:26:22;;;;;;;0.63;0.40;;;24.60;99.90;;;;;;5043745;28;20029;-80
2022/07/23 07:28:47;;;;;;;0.43;0.43;;;24.40;99.90;;;;;;5053655;28;20025;-80
2022/07/23 07:31:13;;;;;;;1.48;0.60;;;24.00;99.90;;;;;;5042303;28;20060;-81
2022/07/23 07:33:39;;;;;;;2.28;0.65;;;23.80;99.90;;;;;;5032623;28;20489;-81
2022/07/23 07:36:05;;;;;;;1.23;0.70;;;23.50;99.90;;;;;;5025673;28;20461;-81
2022/07/23 07:38:30;;;;;;;1.42;0.75;;;23.10;99.90;;;;;;5028952;28;20514;-81
2022/07/23 07:40:56;;;;;;;1.40;0.50;;;23.00;99.90;;;;;;5014174;28;20512;-81
2022/07/23 07:43:22;;;;;;;1.35;0.60;;;22.70;99.90;;;;;;5016814;28;20157;-80
2022/07/23 07:45:47;;;;;;;0.82;0.50;;;22.50;99.90;;;;;;5026180;28;20041;-81
2022/07/23 07:48:13;;;;;;;0.77;0.75;;;22.60;99.90;;;;;;5033218;28;20021;-81
2022/07/23 07:50:38;;;;;;;0.55;0.45;;;22.70;99.90;;;;;;5033236;28;20092;-81
2022/07/23 07:53:04;;;;;;;1.08;0.60;;;22.80;99.90;;;;;;5033235;28;20085;-80
2022/07/23 07:55:30;;;;;;;2.20;0.75;;;22.60;99.90;;;;;;5033454;28;20048;-80
2022/07/23 07:57:56;;;;;;;1.85;0.70;;;22.80;99.90;;;;;;5033680;28;20540;-79
2022/07/23 08:00:22;;;;;;;1.10;0.70;;;22.60;99.90;;;;;;5033016;28;20096;-80
2022/07/23 08:02:50;;;;;;;1.45;0.68;;;22.90;99.90;;;;;;5021651;28;20057;-81
2022/07/23 08:05:26;;;;;;;0.90;0.77;;;23.00;99.90;;;;;;5033329;28;20029;-81
2022/07/23 08:07:52;;;;;;;1.50;0.50;;;22.90;99.90;;;;;;5033360;28;20032;-82
2022/07/23 08:10:18;;;;;;;0.70;0.50;;;22.80;99.90;;;;;;5033278;28;20025;-81
2022/07/23 08:12:53;;;;;;;1.60;0.75;;;22.50;99.90;;;;;;5019625;28;20618;-81
2022/07/23 08:15:20;;;;;;;1.45;0.55;;;22.60;99.90;;;;;;5033102;28;20112;-80
2022/07/23 08:17:48;;;;;;;1.17;0.52;;;22.60;99.90;;;;;;5033264;28;20030;-80
2022/07/23 08:20:17;;;;;;;1.70;0.50;;;22.70;99.90;;;;;;5046203;28;20469;-80
2022/07/23 08:23:19;;;;;;;1.17;0.57;;;22.50;99.90;;;;;;5013271;28;20116;-79
2022/07/23 08:25:46;;;;;;;0.57;0.40;;;22.50;99.90;;;;;;4996073;28;20041;-80
2022/07/23 08:28:13;;;;;;;2.25;0.50;;;22.50;99.90;;;;;;5053143;28;20024;-80
2022/07/23 08:30:40;;;;;;;0.50;0.50;;;22.70;99.90;;;;;;5048225;28;20040;-80
2022/07/23 08:33:12;;;;;;;1.50;0.50;;;22.80;99.90;;;;;;5032715;28;20589;-80
2022/07/23 08:35:44;;;;;;;2.03;0.57;;;22.70;99.90;;;;;;5014299;28;20105;-80
2022/07/23 08:38:10;;;;;;;2.30;0.70;;;23.10;99.90;;;;;;5025984;28;20021;-80
2022/07/23 08:40:38;;;;;;;1.58;0.50;;;23.20;99.90;;;;;;5019739;28;20385;-80
2022/07/23 08:43:06;;;;;;;2.88;0.70;;;23.40;99.90;;;;;;5020470;28;20030;-80
2022/07/23 08:45:36;;;;;;;1.50;0.50;;;23.60;99.90;;;;;;5013295;28;20030;-79
2022/07/23 08:48:03;;;;;;;1.30;0.45;;;23.60;99.90;;;;;;5013213;28;20022;-79
2022/07/23 08:50:29;;;;;;;1.67;0.50;;;23.90;99.90;;;;;;5022437;28;20119;-79
2022/07/23 08:52:56;;;;;;;1.35;0.60;;;23.80;99.90;;;;;;5032729;28;20022;-80
2022/07/23 08:55:22;;;;;;;1.55;0.43;;;23.80;99.90;;;;;;5033258;28;20152;-80
2022/07/23 08:57:51;;;;;;;0.65;0.57;;;23.80;99.90;;;;;;5032851;28;20466;-80
2022/07/23 09:00:19;;;;;;;0.73;0.38;;;23.50;99.90;;;;;;5032731;28;20018;-80
2022/07/23 09:02:46;;;;;;;0.75;0.50;;;23.30;99.90;;;;;;5032720;28;20037;-80
2022/07/23 09:05:13;;;;;;;2.40;0.50;;;22.90;99.90;;;;;;5032806;28;20029;-80
2022/07/23 09:08:04;;;;;;;2.05;0.80;;;22.80;99.90;;;;;;5032335;28;20481;-81
2022/07/23 09:10:34;;;;;;;1.27;0.70;;;22.90;99.90;;;;;;5027763;28;20030;-80
2022/07/23 09:13:00;;;;;;;0.60;0.60;;;22.80;99.90;;;;;;5012926;28;20065;-80
2022/07/23 09:15:25;;;;;;;1.20;0.55;;;22.70;99.90;;;;;;5026537;28;20434;-80
2022/07/23 09:17:51;;;;;;;2.10;0.40;;;22.70;99.90;;;;;;5032366;28;20021;-78
2022/07/23 09:20:17;;;;;;;2.72;0.70;;;23.40;99.90;;;;;;5032241;28;20014;-78
2022/07/23 09:22:47;;;;;;;0.90;0.70;;;23.70;99.90;;;;;;5032499;28;20100;-78
2022/07/23 09:25:16;;;;;;;0.60;0.60;;;24.10;99.90;;;;;;5035890;28;20061;-78
2022/07/23 09:27:52;;;;;;;1.25;0.50;;;24.00;99.90;;;;;;5035875;28;20017;-78
2022/07/23 09:30:22;;;;;;;2.20;0.65;;;23.70;99.90;;;;;;5019654;28;20033;-79
2022/07/23 09:33:06;;;;;;;;;;;23.70;99.90;;;;;;5027242;28;20532;-81
2022/07/23 09:35:55;;;;;;;1.30;0.60;;;24.90;99.90;;;;;;5022653;28;20379;-81
2022/07/23 09:38:23;;;;;;;0.70;0.60;;;26.20;99.90;;;;;;5035313;28;20044;-80
2022/07/23 09:41:11;;;;;;;1.92;0.60;;;26.80;99.90;;;;;;5031343;28;20029;-80
2022/07/23 09:43:37;;;;;;;3.20;0.60;;;26.60;99.90;;;;;;5032367;28;20030;-81
2022/07/23 09:46:25;;;;;;;1.63;0.70;;;26.80;99.90;;;;;;5041924;28;20053;-80
2022/07/23 09:48:56;;;;;;;1.50;0.70;;;26.50;99.90;;;;;;5032460;28;20018;-80
2022/07/23 09:53:58;;;;;;;0.50;0.50;;;26.00;99.90;;;;;;5054767;28;20076;-80
2022/07/23 09:56:26;;;;;;;0.68;0.52;;;26.90;99.90;;;;;;5025691;28;20026;-81
2022/07/23 09:59:00;;;;;;;1.55;0.75;;;26.70;99.90;;;;;;5016759;28;20113;-79
2022/07/23 10:01:27;;;;;;;0.88;0.70;;;28.00;99.90;;;;;;5016534;28;20026;-79
2022/07/23 10:03:53;;;;;;;1.67;0.80;;;27.70;99.90;;;;;;5017125;28;20118;-83
2022/07/23 10:06:18;;;;;;;0.70;0.60;;;26.60;99.90;;;;;;5023560;28;20026;-83
2022/07/23 10:08:47;;;;;;;0.68;0.65;;;27.60;99.90;;;;;;5039360;28;20026;-84
2022/07/23 10:11:14;;;;;;;0.60;0.60;;;28.20;99.90;;;;;;5033052;28;20061;-83
2022/07/23 10:13:57;;;;;;;1.42;0.70;;;28.10;99.90;;;;;;5028395;28;20026;-83
2022/07/23 10:16:23;;;;;;;3.00;0.70;;;31.80;99.90;;;;;;5035797;28;20141;-84
2022/07/23 10:18:49;;;;;;;1.65;0.60;;;30.50;99.90;;;;;;5033330;28;20034;-83
2022/07/23 10:21:39;;;;;;;1.40;0.50;;;33.50;99.90;;;;;;5033738;28;20048;-84
2022/07/23 10:24:23;;;;;;;0.90;0.60;;;34.70;99.90;;;;;;5038439;28;20386;-83
2022/07/23 10:27:01;;;;;;;2.97;0.73;;;38.30;99.90;;;;;;5041733;28;20136;-83
2022/07/23 10:29:36;;;;;;;1.83;0.70;;;36.40;99.90;;;;;;5052487;28;20029;-84
2022/07/23 10:32:08;;;;;;;0.77;0.70;;;36.10;99.90;;;;;;5038343;28;20030;-84
2022/07/23 10:34:48;;;;;;;0.70;0.70;;;35.00;99.90;;;;;;5042635;28;20049;-84
2022/07/23 10:37:16;;;;;;;;;;;34.80;99.90;;;;;;5039167;28;20032;-83
2022/07/23 10:39:42;;;;;;;0.68;0.60;;;32.90;99.90;;;;;;5044259;28;20364;-83
2022/07/23 10:42:13;;;;;;;2.20;1.00;;;34.60;99.90;;;;;;5037036;28;20033;-81
2022/07/23 10:44:48;;;;;;;1.80;0.55;;;32.60;99.90;;;;;;5054881;28;20029;-82
2022/07/23 10:47:39;;;;;;;2.67;1.02;;;33.20;99.90;;;;;;5034871;28;20025;-82
2022/07/23 10:50:31;;;;;;;2.15;0.80;;;35.80;99.90;;;;;;5037258;28;20059;-80
2022/07/23 10:53:06;;;;;;;1.55;0.93;;;35.60;99.90;;;;;;5034199;28;20025;-80
2022/07/23 10:55:31;;;;;;;2.83;0.80;;;37.60;99.90;;;;;;5036088;28;20072;-81
2022/07/23 10:57:57;;;;;;;2.58;0.93;;;38.80;99.90;;;;;;5042861;28;20029;-81
2022/07/23 11:00:25;;;;;;;0.80;0.70;;;39.40;99.90;;;;;;5059263;28;20384;-83
2022/07/23 11:02:53;;;;;;;1.38;0.95;;;34.60;99.90;;;;;;5051032;28;20036;-80
2022/07/23 11:05:43;;;;;;;0.80;0.80;;;32.00;99.90;;;;;;5053626;28;20033;-76
2022/07/23 11:08:12;;;;;;;20.85;1.92;;;34.50;99.90;;;;;;5029188;28;20034;-80
2022/07/23 11:10:43;;;;;;;8.52;1.48;;;33.40;99.90;;;;;;5050967;28;20029;-82
2022/07/23 11:13:24;;;;;;;3.80;1.08;;;31.20;99.90;;;;;;5055616;28;20033;-78
2022/07/23 11:16:05;;;;;;;3.35;1.00;;;30.80;99.90;;;;;;5021332;28;20017;-78
2022/07/23 11:18:40;;;;;;;2.00;0.80;;;32.10;99.90;;;;;;5035527;28;20052;-78
2022/07/23 11:21:20;;;;;;;1.83;0.90;;;29.70;99.90;;;;;;5047720;28;20484;-77
2022/07/23 11:24:07;;;;;;;1.50;0.70;;;29.40;99.90;;;;;;5044868;28;20021;-77
2022/07/23 11:26:50;;;;;;;1.65;1.10;;;29.00;99.90;;;;;;5035162;28;20021;-77
2022/07/23 11:29:27;;;;;;;2.15;0.90;;;28.50;99.90;;;;;;5032494;28;20036;-77
2022/07/23 11:31:54;;;;;;;2.60;1.00;;;29.10;99.90;;;;;;5055638;28;20486;-77
2022/07/23 11:34:38;;;;;;;2.25;0.90;;;29.30;99.90;;;;;;5055186;28;20132;-78
2022/07/23 11:37:05;;;;;;;1.23;0.80;;;29.00;99.90;;;;;;5055974;28;20441;-78
2022/07/23 11:39:32;;;;;;;1.30;0.90;;;28.60;99.90;;;;;;5037010;28;20037;-77
2022/07/23 11:41:59;;;;;;;1.30;0.98;;;29.00;99.90;;;;;;5034606;28;20039;-77
2022/07/23 11:44:26;;;;;;;1.35;0.80;;;28.90;99.90;;;;;;5021287;28;20049;-77
2022/07/23 11:46:59;;;;;;;2.22;1.00;;;28.70;99.90;;;;;;5014403;28;20036;-77
2022/07/23 11:49:26;;;;;;;3.38;0.90;;;28.90;99.90;;;;;;5021339;28;20033;-76
2022/07/23 11:52:12;;;;;;;1.55;0.88;;;29.00;99.90;;;;;;5023148;28;20029;-77
2022/07/23 11:54:49;;;;;;;3.58;0.95;;;28.70;99.90;;;;;;5034849;28;20044;-77
2022/07/23 11:57:16;;;;;;;1.42;0.90;;;29.00;99.90;;;;;;5035936;28;20040;-77
2022/07/23 11:59:43;;;;;;;1.13;0.88;;;28.50;99.90;;;;;;5031446;28;20069;-77
2022/07/23 12:02:08;;;;;;;5.10;0.93;;;27.90;99.90;;;;;;5020966;28;20127;-76
2022/07/23 12:04:46;;;;;;;1.33;0.90;;;27.90;99.90;;;;;;5014804;28;20089;-77
2022/07/23 12:07:24;;;;;;;3.42;1.00;;;27.80;99.90;;;;;;5032224;28;20030;-79
2022/07/23 12:09:50;;;;;;;2.25;0.80;;;27.50;99.90;;;;;;5023533;28;20069;-77
2022/07/23 12:12:16;;;;;;;1.13;1.05;;;27.90;99.90;;;;;;5029280;28;20029;-77
2022/07/23 12:14:58;;;;;;;1.77;0.77;;;27.80;99.90;;;;;;5017098;28;20030;-79
2022/07/23 12:17:33;;;;;;;1.65;0.90;;;28.20;99.90;;;;;;5020769;28;20029;-77
2022/07/23 12:20:00;;;;;;;1.92;1.23;;;28.40;99.90;;;;;;5027403;28;20435;-76
2022/07/23 12:22:37;;;;;;;1.65;1.00;;;28.60;99.90;;;;;;5034105;28;20397;-77
2022/07/23 12:25:04;;;;;;;1.67;0.95;;;28.90;99.90;;;;;;5033724;28;20061;-77
2022/07/23 12:27:30;;;;;;;1.20;1.10;;;28.40;99.90;;;;;;5040844;28;20025;-76
2022/07/23 12:29:56;;;;;;;1.90;0.80;;;28.50;99.90;;;;;;5054421;28;20472;-77
2022/07/23 12:32:24;;;;;;;1.13;1.00;;;28.70;99.90;;;;;;5014169;28;20030;-76
2022/07/23 12:35:10;;;;;;;1.63;1.00;;;28.70;99.90;;;;;;5015226;28;20689;-76
2022/07/23 12:37:41;;;;;;;1.60;1.02;;;28.10;99.90;;;;;;5025416;28;20072;-76
2022/07/23 12:40:25;;;;;;;0.90;0.90;;;27.80;99.90;;;;;;5035184;28;20025;-76
2022/07/23 12:42:55;;;;;;;2.00;1.10;;;27.90;99.90;;;;;;5033895;28;20021;-76
2022/07/23 12:45:21;;;;;;;4.40;1.20;;;27.60;99.90;;;;;;5027424;28;20038;-76
2022/07/23 12:48:06;;;;;;;3.15;1.35;;;27.60;99.90;;;;;;5015586;28;20504;-76
2022/07/23 12:50:43;;;;;;;1.17;1.08;;;28.00;99.90;;;;;;5025456;28;20021;-76
2022/07/23 12:53:17;;;;;;;1.30;1.20;;;27.90;99.90;;;;;;5030457;28;20025;-76
2022/07/23 12:55:44;;;;;;;1.98;1.30;;;28.00;99.90;;;;;;5019914;28;20022;-76